Miltona, Minnesota
Current Conditions -  °F | °C
As of 7:53 PM on Monday 20 Oct 2014 (Local Time) from KAXN Reporting Station
Clear Clear  
Wind Chill: 53°   Ceiling: Unl
Heat Index: 53°   Visibility: 10mi
Dew Point: 37°   Wind: 5mph
Humidity: 55%   Direction: 350°N
Pressure: 30.05"   Gusts: NA
Location:  46.04°N, 95.29°W
Report Text: KAXN 210053Z AUTO 35004KT 10SM CLR 12/03 A3005 RMK AO2 SLP185 T01170028
Loading
Personal Weather Stations






























Interactive Weather Map
Tropical Storm Tracking
New forecast layout! Learn more

10-Day Weather Forecast

Advertisements
Track Severe Weather on mobile